sensor_id;sensor_type;location;lat;lon;timestamp;P1;durP1;ratioP1;P2;durP2;ratioP2
47413;SDS011;33163;0.000;0.000;2022-10-23T00:00:29;9.25;;;4.53;;
47413;SDS011;33163;0.000;0.000;2022-10-23T00:02:57;6.00;;;3.90;;
47413;SDS011;33163;0.000;0.000;2022-10-23T00:05:25;7.43;;;3.78;;
47413;SDS011;33163;0.000;0.000;2022-10-23T00:07:53;7.20;;;3.97;;
47413;SDS011;33163;0.000;0.000;2022-10-23T00:10:21;7.68;;;4.28;;
47413;SDS011;33163;0.000;0.000;2022-10-23T00:12:49;6.78;;;3.83;;
47413;SDS011;33163;0.000;0.000;2022-10-23T00:15:17;8.18;;;4.38;;
47413;SDS011;33163;0.000;0.000;2022-10-23T00:17:45;7.95;;;3.88;;
47413;SDS011;33163;0.000;0.000;2022-10-23T00:20:14;6.22;;;3.33;;
47413;SDS011;33163;0.000;0.000;2022-10-23T00:22:41;5.70;;;3.30;;
47413;SDS011;33163;0.000;0.000;2022-10-23T00:25:08;11.35;;;3.70;;
47413;SDS011;33163;0.000;0.000;2022-10-23T00:27:35;5.68;;;3.72;;
47413;SDS011;33163;0.000;0.000;2022-10-23T00:30:02;6.53;;;3.70;;
47413;SDS011;33163;0.000;0.000;2022-10-23T00:32:30;10.98;;;4.10;;
47413;SDS011;33163;0.000;0.000;2022-10-23T00:34:57;7.20;;;3.70;;
47413;SDS011;33163;0.000;0.000;2022-10-23T00:37:25;10.63;;;4.70;;
47413;SDS011;33163;0.000;0.000;2022-10-23T00:39:52;7.40;;;4.07;;
47413;SDS011;33163;0.000;0.000;2022-10-23T00:42:19;7.75;;;3.55;;
47413;SDS011;33163;0.000;0.000;2022-10-23T00:47:37;6.07;;;3.40;;
47413;SDS011;33163;0.000;0.000;2022-10-23T00:50:04;6.78;;;3.42;;
47413;SDS011;33163;0.000;0.000;2022-10-23T00:52:34;8.73;;;3.55;;
47413;SDS011;33163;0.000;0.000;2022-10-23T00:55:06;6.78;;;2.92;;
47413;SDS011;33163;0.000;0.000;2022-10-23T00:57:33;6.53;;;3.97;;
47413;SDS011;33163;0.000;0.000;2022-10-23T00:59:59;7.60;;;3.40;;
47413;SDS011;33163;0.000;0.000;2022-10-23T01:02:26;6.55;;;3.55;;
47413;SDS011;33163;0.000;0.000;2022-10-23T01:04:53;7.63;;;4.03;;
47413;SDS011;33163;0.000;0.000;2022-10-23T01:07:21;6.68;;;3.53;;
47413;SDS011;33163;0.000;0.000;2022-10-23T01:12:30;7.43;;;3.22;;
47413;SDS011;33163;0.000;0.000;2022-10-23T01:17:35;6.82;;;3.55;;
47413;SDS011;33163;0.000;0.000;2022-10-23T01:20:10;8.30;;;3.78;;
47413;SDS011;33163;0.000;0.000;2022-10-23T01:22:48;5.35;;;3.13;;
47413;SDS011;33163;0.000;0.000;2022-10-23T01:25:33;7.15;;;3.58;;
47413;SDS011;33163;0.000;0.000;2022-10-23T01:28:13;6.43;;;3.72;;
47413;SDS011;33163;0.000;0.000;2022-10-23T01:30:45;7.30;;;3.90;;
47413;SDS011;33163;0.000;0.000;2022-10-23T01:33:14;7.82;;;3.80;;
47413;SDS011;33163;0.000;0.000;2022-10-23T01:35:46;6.60;;;3.65;;
47413;SDS011;33163;0.000;0.000;2022-10-23T01:38:17;6.25;;;3.60;;
47413;SDS011;33163;0.000;0.000;2022-10-23T01:40:48;7.88;;;3.30;;
47413;SDS011;33163;0.000;0.000;2022-10-23T01:43:21;5.82;;;3.00;;
47413;SDS011;33163;0.000;0.000;2022-10-23T01:45:52;4.35;;;2.90;;
47413;SDS011;33163;0.000;0.000;2022-10-23T01:48:23;6.57;;;3.03;;
47413;SDS011;33163;0.000;0.000;2022-10-23T01:50:54;6.18;;;3.47;;
47413;SDS011;33163;0.000;0.000;2022-10-23T01:53:24;7.13;;;3.55;;
47413;SDS011;33163;0.000;0.000;2022-10-23T01:55:55;6.78;;;3.40;;
47413;SDS011;33163;0.000;0.000;2022-10-23T01:58:24;6.05;;;3.40;;
47413;SDS011;33163;0.000;0.000;2022-10-23T02:00:53;6.25;;;3.38;;
47413;SDS011;33163;0.000;0.000;2022-10-23T02:03:23;5.68;;;2.92;;
47413;SDS011;33163;0.000;0.000;2022-10-23T02:05:53;6.97;;;3.40;;
47413;SDS011;33163;0.000;0.000;2022-10-23T02:08:20;10.52;;;3.42;;
47413;SDS011;33163;0.000;0.000;2022-10-23T02:10:48;7.60;;;3.70;;
47413;SDS011;33163;0.000;0.000;2022-10-23T02:13:21;8.70;;;3.13;;
47413;SDS011;33163;0.000;0.000;2022-10-23T02:15:56;6.40;;;3.05;;
47413;SDS011;33163;0.000;0.000;2022-10-23T02:18:31;8.63;;;3.42;;
47413;SDS011;33163;0.000;0.000;2022-10-23T02:21:07;5.65;;;3.33;;
47413;SDS011;33163;0.000;0.000;2022-10-23T02:23:37;5.40;;;2.85;;
47413;SDS011;33163;0.000;0.000;2022-10-23T02:26:11;6.28;;;2.95;;
47413;SDS011;33163;0.000;0.000;2022-10-23T02:28:44;5.22;;;2.85;;
47413;SDS011;33163;0.000;0.000;2022-10-23T02:31:16;7.47;;;3.13;;
47413;SDS011;33163;0.000;0.000;2022-10-23T02:33:46;6.07;;;3.20;;
47413;SDS011;33163;0.000;0.000;2022-10-23T02:36:14;7.65;;;2.90;;
47413;SDS011;33163;0.000;0.000;2022-10-23T02:38:43;6.40;;;3.08;;
47413;SDS011;33163;0.000;0.000;2022-10-23T02:41:24;5.03;;;2.58;;
47413;SDS011;33163;0.000;0.000;2022-10-23T02:44:07;8.55;;;3.35;;
47413;SDS011;33163;0.000;0.000;2022-10-23T02:46:44;4.75;;;2.75;;
47413;SDS011;33163;0.000;0.000;2022-10-23T02:49:19;3.70;;;2.45;;
47413;SDS011;33163;0.000;0.000;2022-10-23T02:51:54;6.13;;;3.50;;
47413;SDS011;33163;0.000;0.000;2022-10-23T02:54:35;9.43;;;3.83;;
47413;SDS011;33163;0.000;0.000;2022-10-23T02:57:14;6.00;;;2.90;;
47413;SDS011;33163;0.000;0.000;2022-10-23T02:59:50;5.85;;;3.03;;
47413;SDS011;33163;0.000;0.000;2022-10-23T03:02:25;7.72;;;3.15;;
47413;SDS011;33163;0.000;0.000;2022-10-23T03:04:57;4.80;;;2.63;;
47413;SDS011;33163;0.000;0.000;2022-10-23T03:07:26;6.30;;;3.03;;
47413;SDS011;33163;0.000;0.000;2022-10-23T03:09:53;4.38;;;2.70;;
47413;SDS011;33163;0.000;0.000;2022-10-23T03:12:19;4.72;;;2.75;;
47413;SDS011;33163;0.000;0.000;2022-10-23T03:14:46;5.40;;;2.55;;
47413;SDS011;33163;0.000;0.000;2022-10-23T03:17:14;5.20;;;2.47;;
47413;SDS011;33163;0.000;0.000;2022-10-23T03:19:41;4.88;;;2.60;;
47413;SDS011;33163;0.000;0.000;2022-10-23T03:22:07;6.40;;;2.83;;
47413;SDS011;33163;0.000;0.000;2022-10-23T03:24:34;6.30;;;2.85;;
47413;SDS011;33163;0.000;0.000;2022-10-23T03:27:01;4.57;;;2.50;;
47413;SDS011;33163;0.000;0.000;2022-10-23T03:29:27;5.47;;;2.53;;
47413;SDS011;33163;0.000;0.000;2022-10-23T03:31:54;4.53;;;2.55;;
47413;SDS011;33163;0.000;0.000;2022-10-23T03:34:22;4.60;;;2.53;;
47413;SDS011;33163;0.000;0.000;2022-10-23T03:36:49;6.35;;;3.03;;
47413;SDS011;33163;0.000;0.000;2022-10-23T03:39:15;5.25;;;2.75;;
47413;SDS011;33163;0.000;0.000;2022-10-23T03:41:42;7.95;;;2.72;;
47413;SDS011;33163;0.000;0.000;2022-10-23T03:44:09;4.28;;;2.67;;
47413;SDS011;33163;0.000;0.000;2022-10-23T03:46:35;5.15;;;2.63;;
47413;SDS011;33163;0.000;0.000;2022-10-23T03:49:02;5.68;;;3.30;;
47413;SDS011;33163;0.000;0.000;2022-10-23T03:51:31;4.43;;;2.42;;
47413;SDS011;33163;0.000;0.000;2022-10-23T03:53:57;5.38;;;2.42;;
47413;SDS011;33163;0.000;0.000;2022-10-23T03:56:24;3.15;;;2.40;;
47413;SDS011;33163;0.000;0.000;2022-10-23T03:58:51;3.65;;;2.25;;
47413;SDS011;33163;0.000;0.000;2022-10-23T04:01:18;6.85;;;2.65;;
47413;SDS011;33163;0.000;0.000;2022-10-23T04:03:44;5.03;;;2.38;;
47413;SDS011;33163;0.000;0.000;2022-10-23T04:06:11;5.13;;;2.70;;
47413;SDS011;33163;0.000;0.000;2022-10-23T04:08:41;4.25;;;2.78;;
47413;SDS011;33163;0.000;0.000;2022-10-23T04:11:08;6.93;;;2.63;;
47413;SDS011;33163;0.000;0.000;2022-10-23T04:13:34;5.30;;;2.50;;
47413;SDS011;33163;0.000;0.000;2022-10-23T04:16:01;3.15;;;2.10;;
47413;SDS011;33163;0.000;0.000;2022-10-23T04:18:28;7.35;;;2.47;;
47413;SDS011;33163;0.000;0.000;2022-10-23T04:20:55;5.30;;;2.42;;
47413;SDS011;33163;0.000;0.000;2022-10-23T04:23:21;5.05;;;2.65;;
47413;SDS011;33163;0.000;0.000;2022-10-23T04:25:50;7.65;;;2.33;;
47413;SDS011;33163;0.000;0.000;2022-10-23T04:28:16;4.85;;;2.22;;
47413;SDS011;33163;0.000;0.000;2022-10-23T04:30:43;5.80;;;2.95;;
47413;SDS011;33163;0.000;0.000;2022-10-23T04:33:09;4.80;;;2.38;;
47413;SDS011;33163;0.000;0.000;2022-10-23T04:35:36;5.30;;;2.42;;
47413;SDS011;33163;0.000;0.000;2022-10-23T04:38:03;4.65;;;2.33;;
47413;SDS011;33163;0.000;0.000;2022-10-23T04:40:30;4.18;;;2.75;;
47413;SDS011;33163;0.000;0.000;2022-10-23T04:42:58;4.30;;;2.30;;
47413;SDS011;33163;0.000;0.000;2022-10-23T04:45:24;5.05;;;2.75;;
47413;SDS011;33163;0.000;0.000;2022-10-23T04:47:51;5.72;;;2.50;;
47413;SDS011;33163;0.000;0.000;2022-10-23T04:50:18;4.47;;;2.80;;
47413;SDS011;33163;0.000;0.000;2022-10-23T04:52:45;3.65;;;2.50;;
47413;SDS011;33163;0.000;0.000;2022-10-23T04:55:12;5.80;;;2.45;;
47413;SDS011;33163;0.000;0.000;2022-10-23T04:57:39;5.63;;;2.50;;
47413;SDS011;33163;0.000;0.000;2022-10-23T05:00:08;4.53;;;2.20;;
47413;SDS011;33163;0.000;0.000;2022-10-23T05:02:38;5.05;;;2.42;;
47413;SDS011;33163;0.000;0.000;2022-10-23T05:05:05;4.43;;;2.60;;
47413;SDS011;33163;0.000;0.000;2022-10-23T05:07:32;4.78;;;2.33;;
47413;SDS011;33163;0.000;0.000;2022-10-23T05:09:59;5.03;;;2.55;;
47413;SDS011;33163;0.000;0.000;2022-10-23T05:12:27;5.03;;;2.28;;
47413;SDS011;33163;0.000;0.000;2022-10-23T05:14:54;5.28;;;2.17;;
47413;SDS011;33163;0.000;0.000;2022-10-23T05:17:23;7.57;;;2.70;;
47413;SDS011;33163;0.000;0.000;2022-10-23T05:19:53;5.25;;;2.40;;
47413;SDS011;33163;0.000;0.000;2022-10-23T05:22:24;3.42;;;2.10;;
47413;SDS011;33163;0.000;0.000;2022-10-23T05:24:55;4.55;;;2.33;;
47413;SDS011;33163;0.000;0.000;2022-10-23T05:27:21;6.18;;;2.72;;
47413;SDS011;33163;0.000;0.000;2022-10-23T05:29:48;4.43;;;2.20;;
47413;SDS011;33163;0.000;0.000;2022-10-23T05:32:15;6.07;;;2.60;;
47413;SDS011;33163;0.000;0.000;2022-10-23T05:34:43;6.40;;;2.67;;
47413;SDS011;33163;0.000;0.000;2022-10-23T05:37:10;3.97;;;1.95;;
47413;SDS011;33163;0.000;0.000;2022-10-23T05:39:39;4.82;;;2.08;;
47413;SDS011;33163;0.000;0.000;2022-10-23T05:42:06;4.07;;;2.15;;
47413;SDS011;33163;0.000;0.000;2022-10-23T05:44:32;3.30;;;1.88;;
47413;SDS011;33163;0.000;0.000;2022-10-23T05:47:00;4.38;;;2.17;;
47413;SDS011;33163;0.000;0.000;2022-10-23T05:49:27;3.70;;;2.10;;
47413;SDS011;33163;0.000;0.000;2022-10-23T05:51:55;4.00;;;2.33;;
47413;SDS011;33163;0.000;0.000;2022-10-23T05:54:22;2.08;;;1.73;;
47413;SDS011;33163;0.000;0.000;2022-10-23T05:56:48;3.78;;;2.42;;
47413;SDS011;33163;0.000;0.000;2022-10-23T05:59:16;5.15;;;2.20;;
47413;SDS011;33163;0.000;0.000;2022-10-23T06:01:42;3.28;;;1.83;;
47413;SDS011;33163;0.000;0.000;2022-10-23T06:04:09;4.88;;;2.38;;
47413;SDS011;33163;0.000;0.000;2022-10-23T06:06:36;4.65;;;1.95;;
47413;SDS011;33163;0.000;0.000;2022-10-23T06:09:04;3.85;;;1.95;;
47413;SDS011;33163;0.000;0.000;2022-10-23T06:11:31;3.72;;;2.30;;
47413;SDS011;33163;0.000;0.000;2022-10-23T06:13:57;3.00;;;2.03;;
47413;SDS011;33163;0.000;0.000;2022-10-23T06:16:27;4.60;;;2.53;;
47413;SDS011;33163;0.000;0.000;2022-10-23T06:18:53;4.30;;;2.13;;
47413;SDS011;33163;0.000;0.000;2022-10-23T06:21:21;3.65;;;1.83;;
47413;SDS011;33163;0.000;0.000;2022-10-23T06:23:48;3.80;;;2.10;;
47413;SDS011;33163;0.000;0.000;2022-10-23T06:26:17;5.47;;;2.15;;
47413;SDS011;33163;0.000;0.000;2022-10-23T06:28:44;4.45;;;2.40;;
47413;SDS011;33163;0.000;0.000;2022-10-23T06:31:12;3.60;;;2.13;;
47413;SDS011;33163;0.000;0.000;2022-10-23T06:33:40;4.72;;;2.10;;
47413;SDS011;33163;0.000;0.000;2022-10-23T06:36:07;5.13;;;2.15;;
47413;SDS011;33163;0.000;0.000;2022-10-23T06:38:35;4.70;;;2.22;;
47413;SDS011;33163;0.000;0.000;2022-10-23T06:41:04;5.38;;;2.00;;
47413;SDS011;33163;0.000;0.000;2022-10-23T06:43:33;4.43;;;1.95;;
47413;SDS011;33163;0.000;0.000;2022-10-23T06:46:01;3.65;;;2.28;;
47413;SDS011;33163;0.000;0.000;2022-10-23T06:48:28;3.20;;;1.88;;
47413;SDS011;33163;0.000;0.000;2022-10-23T06:50:54;16.58;;;2.60;;
47413;SDS011;33163;0.000;0.000;2022-10-23T06:53:21;4.63;;;2.35;;
47413;SDS011;33163;0.000;0.000;2022-10-23T06:55:49;7.50;;;2.35;;
47413;SDS011;33163;0.000;0.000;2022-10-23T06:58:15;7.80;;;2.65;;
47413;SDS011;33163;0.000;0.000;2022-10-23T07:00:43;10.48;;;2.42;;
47413;SDS011;33163;0.000;0.000;2022-10-23T07:03:10;9.80;;;2.30;;
47413;SDS011;33163;0.000;0.000;2022-10-23T07:05:37;7.82;;;2.40;;
47413;SDS011;33163;0.000;0.000;2022-10-23T07:08:05;6.85;;;2.55;;
47413;SDS011;33163;0.000;0.000;2022-10-23T07:10:33;8.27;;;2.50;;
47413;SDS011;33163;0.000;0.000;2022-10-23T07:13:00;6.70;;;2.35;;
47413;SDS011;33163;0.000;0.000;2022-10-23T07:15:27;6.88;;;2.80;;
47413;SDS011;33163;0.000;0.000;2022-10-23T07:17:56;3.83;;;2.28;;
47413;SDS011;33163;0.000;0.000;2022-10-23T07:20:22;6.18;;;2.65;;
47413;SDS011;33163;0.000;0.000;2022-10-23T07:22:49;10.02;;;2.13;;
47413;SDS011;33163;0.000;0.000;2022-10-23T07:25:18;4.85;;;1.98;;
47413;SDS011;33163;0.000;0.000;2022-10-23T07:27:45;10.38;;;2.60;;
47413;SDS011;33163;0.000;0.000;2022-10-23T07:30:12;7.93;;;2.55;;
47413;SDS011;33163;0.000;0.000;2022-10-23T07:32:39;4.80;;;2.47;;
47413;SDS011;33163;0.000;0.000;2022-10-23T07:35:09;4.38;;;2.00;;
47413;SDS011;33163;0.000;0.000;2022-10-23T07:37:37;4.32;;;2.50;;
47413;SDS011;33163;0.000;0.000;2022-10-23T07:40:04;6.90;;;2.67;;
47413;SDS011;33163;0.000;0.000;2022-10-23T07:42:32;7.18;;;2.25;;
47413;SDS011;33163;0.000;0.000;2022-10-23T07:44:59;6.25;;;2.58;;
47413;SDS011;33163;0.000;0.000;2022-10-23T07:47:25;5.72;;;2.05;;
47413;SDS011;33163;0.000;0.000;2022-10-23T07:49:52;4.90;;;2.20;;
47413;SDS011;33163;0.000;0.000;2022-10-23T07:52:20;9.63;;;2.55;;
47413;SDS011;33163;0.000;0.000;2022-10-23T07:54:49;4.25;;;2.08;;
47413;SDS011;33163;0.000;0.000;2022-10-23T07:57:16;6.18;;;2.47;;
47413;SDS011;33163;0.000;0.000;2022-10-23T07:59:42;3.70;;;1.80;;
47413;SDS011;33163;0.000;0.000;2022-10-23T08:02:10;5.10;;;2.40;;
47413;SDS011;33163;0.000;0.000;2022-10-23T08:04:37;5.20;;;2.22;;
47413;SDS011;33163;0.000;0.000;2022-10-23T08:07:04;4.57;;;2.10;;
47413;SDS011;33163;0.000;0.000;2022-10-23T08:09:32;12.45;;;2.20;;
47413;SDS011;33163;0.000;0.000;2022-10-23T08:12:00;6.82;;;2.10;;
47413;SDS011;33163;0.000;0.000;2022-10-23T08:14:27;7.72;;;2.60;;
47413;SDS011;33163;0.000;0.000;2022-10-23T08:16:54;3.30;;;1.80;;
47413;SDS011;33163;0.000;0.000;2022-10-23T08:19:20;7.03;;;2.25;;
47413;SDS011;33163;0.000;0.000;2022-10-23T08:21:47;3.20;;;1.83;;
47413;SDS011;33163;0.000;0.000;2022-10-23T08:24:14;6.30;;;1.95;;
47413;SDS011;33163;0.000;0.000;2022-10-23T08:26:42;6.38;;;2.17;;
47413;SDS011;33163;0.000;0.000;2022-10-23T08:29:08;2.55;;;2.00;;
47413;SDS011;33163;0.000;0.000;2022-10-23T08:31:35;5.85;;;1.80;;
47413;SDS011;33163;0.000;0.000;2022-10-23T08:34:02;4.32;;;1.98;;
47413;SDS011;33163;0.000;0.000;2022-10-23T08:36:29;6.47;;;2.15;;
47413;SDS011;33163;0.000;0.000;2022-10-23T08:38:56;3.35;;;1.88;;
47413;SDS011;33163;0.000;0.000;2022-10-23T08:41:24;4.32;;;2.30;;
47413;SDS011;33163;0.000;0.000;2022-10-23T08:43:57;4.32;;;1.85;;
47413;SDS011;33163;0.000;0.000;2022-10-23T08:46:30;6.78;;;1.70;;
47413;SDS011;33163;0.000;0.000;2022-10-23T08:49:06;7.15;;;2.40;;
47413;SDS011;33163;0.000;0.000;2022-10-23T08:51:43;4.82;;;1.83;;
47413;SDS011;33163;0.000;0.000;2022-10-23T08:54:13;5.65;;;1.90;;
47413;SDS011;33163;0.000;0.000;2022-10-23T08:56:43;6.72;;;2.10;;
47413;SDS011;33163;0.000;0.000;2022-10-23T08:59:18;7.22;;;1.90;;
47413;SDS011;33163;0.000;0.000;2022-10-23T09:01:51;5.40;;;2.23;;
47413;SDS011;33163;0.000;0.000;2022-10-23T09:04:23;10.60;;;2.10;;
47413;SDS011;33163;0.000;0.000;2022-10-23T09:06:50;9.52;;;2.08;;
47413;SDS011;33163;0.000;0.000;2022-10-23T09:12:11;6.38;;;1.80;;
47413;SDS011;33163;0.000;0.000;2022-10-23T09:14:51;7.22;;;2.17;;
47413;SDS011;33163;0.000;0.000;2022-10-23T09:17:32;4.50;;;2.10;;
47413;SDS011;33163;0.000;0.000;2022-10-23T09:20:09;4.05;;;1.80;;
47413;SDS011;33163;0.000;0.000;2022-10-23T09:22:41;3.90;;;2.17;;
47413;SDS011;33163;0.000;0.000;2022-10-23T09:25:09;4.25;;;2.10;;
47413;SDS011;33163;0.000;0.000;2022-10-23T09:27:37;7.55;;;2.28;;
47413;SDS011;33163;0.000;0.000;2022-10-23T09:30:07;4.50;;;1.88;;
47413;SDS011;33163;0.000;0.000;2022-10-23T09:32:35;3.35;;;1.80;;
47413;SDS011;33163;0.000;0.000;2022-10-23T09:35:03;2.63;;;1.55;;
47413;SDS011;33163;0.000;0.000;2022-10-23T09:37:31;3.97;;;1.52;;
47413;SDS011;33163;0.000;0.000;2022-10-23T09:40:00;5.70;;;2.03;;
47413;SDS011;33163;0.000;0.000;2022-10-23T09:42:49;4.88;;;1.63;;
47413;SDS011;33163;0.000;0.000;2022-10-23T09:45:23;2.88;;;1.95;;
47413;SDS011;33163;0.000;0.000;2022-10-23T09:48:02;3.75;;;2.10;;
47413;SDS011;33163;0.000;0.000;2022-10-23T09:50:36;3.97;;;1.70;;
47413;SDS011;33163;0.000;0.000;2022-10-23T09:53:10;4.70;;;1.77;;
47413;SDS011;33163;0.000;0.000;2022-10-23T09:55:41;7.20;;;1.90;;
47413;SDS011;33163;0.000;0.000;2022-10-23T09:58:17;8.52;;;2.28;;
47413;SDS011;33163;0.000;0.000;2022-10-23T10:00:47;6.38;;;2.20;;
47413;SDS011;33163;0.000;0.000;2022-10-23T10:03:18;8.38;;;2.10;;
47413;SDS011;33163;0.000;0.000;2022-10-23T10:05:52;4.38;;;1.83;;
47413;SDS011;33163;0.000;0.000;2022-10-23T10:08:23;8.07;;;2.03;;
47413;SDS011;33163;0.000;0.000;2022-10-23T10:11:08;6.82;;;2.03;;
47413;SDS011;33163;0.000;0.000;2022-10-23T10:16:53;9.32;;;2.10;;
47413;SDS011;33163;0.000;0.000;2022-10-23T10:19:29;9.88;;;2.15;;
47413;SDS011;33163;0.000;0.000;2022-10-23T10:22:07;8.75;;;2.25;;
47413;SDS011;33163;0.000;0.000;2022-10-23T10:24:45;7.95;;;2.20;;
47413;SDS011;33163;0.000;0.000;2022-10-23T10:27:19;7.95;;;1.95;;
47413;SDS011;33163;0.000;0.000;2022-10-23T10:30:00;6.60;;;2.28;;
47413;SDS011;33163;0.000;0.000;2022-10-23T10:32:37;11.13;;;2.67;;
47413;SDS011;33163;0.000;0.000;2022-10-23T10:35:22;12.07;;;2.30;;
47413;SDS011;33163;0.000;0.000;2022-10-23T10:37:58;8.52;;;2.38;;
47413;SDS011;33163;0.000;0.000;2022-10-23T10:40:40;13.57;;;2.33;;
47413;SDS011;33163;0.000;0.000;2022-10-23T10:43:16;9.10;;;2.38;;
47413;SDS011;33163;0.000;0.000;2022-10-23T10:45:52;8.35;;;2.60;;
47413;SDS011;33163;0.000;0.000;2022-10-23T10:48:38;6.00;;;1.95;;
47413;SDS011;33163;0.000;0.000;2022-10-23T10:51:10;10.60;;;2.67;;
47413;SDS011;33163;0.000;0.000;2022-10-23T10:53:49;6.47;;;2.05;;
47413;SDS011;33163;0.000;0.000;2022-10-23T10:56:26;8.35;;;2.45;;
47413;SDS011;33163;0.000;0.000;2022-10-23T10:58:57;7.88;;;2.35;;
47413;SDS011;33163;0.000;0.000;2022-10-23T11:01:27;8.45;;;2.58;;
47413;SDS011;33163;0.000;0.000;2022-10-23T11:04:01;12.25;;;2.72;;
47413;SDS011;33163;0.000;0.000;2022-10-23T11:06:34;5.75;;;2.08;;
47413;SDS011;33163;0.000;0.000;2022-10-23T11:09:05;4.00;;;2.13;;
47413;SDS011;33163;0.000;0.000;2022-10-23T11:11:39;3.75;;;1.85;;
47413;SDS011;33163;0.000;0.000;2022-10-23T11:14:06;14.57;;;1.95;;
47413;SDS011;33163;0.000;0.000;2022-10-23T11:16:41;4.55;;;2.50;;
47413;SDS011;33163;0.000;0.000;2022-10-23T11:19:17;5.35;;;1.98;;
47413;SDS011;33163;0.000;0.000;2022-10-23T11:24:24;7.55;;;2.00;;
47413;SDS011;33163;0.000;0.000;2022-10-23T11:27:12;10.05;;;3.65;;
47413;SDS011;33163;0.000;0.000;2022-10-23T11:30:09;17.95;;;8.32;;
47413;SDS011;33163;0.000;0.000;2022-10-23T11:32:46;12.63;;;5.93;;
47413;SDS011;33163;0.000;0.000;2022-10-23T11:35:41;13.45;;;5.88;;
47413;SDS011;33163;0.000;0.000;2022-10-23T11:38:15;12.75;;;6.18;;
47413;SDS011;33163;0.000;0.000;2022-10-23T11:40:44;12.40;;;5.68;;
47413;SDS011;33163;0.000;0.000;2022-10-23T11:43:12;11.25;;;5.82;;
47413;SDS011;33163;0.000;0.000;2022-10-23T11:45:50;13.77;;;5.70;;
47413;SDS011;33163;0.000;0.000;2022-10-23T11:48:19;12.45;;;5.32;;
47413;SDS011;33163;0.000;0.000;2022-10-23T11:50:52;14.75;;;5.47;;
47413;SDS011;33163;0.000;0.000;2022-10-23T11:53:23;17.10;;;4.43;;
47413;SDS011;33163;0.000;0.000;2022-10-23T11:55:56;9.90;;;4.72;;
47413;SDS011;33163;0.000;0.000;2022-10-23T11:58:25;8.35;;;3.65;;
47413;SDS011;33163;0.000;0.000;2022-10-23T12:00:57;18.98;;;4.05;;
47413;SDS011;33163;0.000;0.000;2022-10-23T12:03:29;13.32;;;3.70;;
47413;SDS011;33163;0.000;0.000;2022-10-23T12:06:05;8.40;;;3.20;;
47413;SDS011;33163;0.000;0.000;2022-10-23T12:08:48;10.52;;;3.42;;
47413;SDS011;33163;0.000;0.000;2022-10-23T12:16:52;6.55;;;2.85;;
47413;SDS011;33163;0.000;0.000;2022-10-23T12:19:20;6.63;;;3.30;;
47413;SDS011;33163;0.000;0.000;2022-10-23T12:21:51;12.77;;;3.22;;
47413;SDS011;33163;0.000;0.000;2022-10-23T12:24:28;14.85;;;3.03;;
47413;SDS011;33163;0.000;0.000;2022-10-23T12:27:06;5.60;;;2.90;;
47413;SDS011;33163;0.000;0.000;2022-10-23T12:29:44;4.88;;;3.22;;
47413;SDS011;33163;0.000;0.000;2022-10-23T12:32:24;4.07;;;2.53;;
47413;SDS011;33163;0.000;0.000;2022-10-23T12:35:08;7.85;;;3.13;;
47413;SDS011;33163;0.000;0.000;2022-10-23T12:37:53;6.68;;;2.70;;
47413;SDS011;33163;0.000;0.000;2022-10-23T12:40:26;7.75;;;2.90;;
47413;SDS011;33163;0.000;0.000;2022-10-23T12:42:55;6.95;;;3.03;;
47413;SDS011;33163;0.000;0.000;2022-10-23T12:45:23;9.63;;;3.17;;
47413;SDS011;33163;0.000;0.000;2022-10-23T12:47:52;8.63;;;3.40;;
47413;SDS011;33163;0.000;0.000;2022-10-23T12:50:20;10.20;;;3.33;;
47413;SDS011;33163;0.000;0.000;2022-10-23T12:52:53;10.95;;;2.70;;
47413;SDS011;33163;0.000;0.000;2022-10-23T12:55:21;10.82;;;3.60;;
47413;SDS011;33163;0.000;0.000;2022-10-23T12:57:48;11.93;;;3.35;;
47413;SDS011;33163;0.000;0.000;2022-10-23T13:00:17;12.15;;;2.97;;
47413;SDS011;33163;0.000;0.000;2022-10-23T13:02:55;10.15;;;2.63;;
47413;SDS011;33163;0.000;0.000;2022-10-23T13:05:23;7.28;;;2.47;;
47413;SDS011;33163;0.000;0.000;2022-10-23T13:07:50;6.68;;;2.72;;
47413;SDS011;33163;0.000;0.000;2022-10-23T13:10:19;11.13;;;3.15;;
47413;SDS011;33163;0.000;0.000;2022-10-23T13:12:49;10.90;;;2.92;;
47413;SDS011;33163;0.000;0.000;2022-10-23T13:15:19;4.40;;;2.33;;
47413;SDS011;33163;0.000;0.000;2022-10-23T13:17:47;5.10;;;2.35;;
47413;SDS011;33163;0.000;0.000;2022-10-23T13:20:29;6.45;;;2.33;;
47413;SDS011;33163;0.000;0.000;2022-10-23T13:23:00;6.25;;;2.38;;
47413;SDS011;33163;0.000;0.000;2022-10-23T13:25:36;6.20;;;2.58;;
47413;SDS011;33163;0.000;0.000;2022-10-23T13:28:23;5.65;;;2.28;;
47413;SDS011;33163;0.000;0.000;2022-10-23T13:33:49;4.05;;;2.38;;
47413;SDS011;33163;0.000;0.000;2022-10-23T13:36:28;8.98;;;2.53;;
47413;SDS011;33163;0.000;0.000;2022-10-23T13:39:01;5.63;;;2.20;;
47413;SDS011;33163;0.000;0.000;2022-10-23T13:41:38;13.02;;;3.53;;
47413;SDS011;33163;0.000;0.000;2022-10-23T13:44:06;6.05;;;2.40;;
47413;SDS011;33163;0.000;0.000;2022-10-23T13:46:34;5.82;;;2.30;;
47413;SDS011;33163;0.000;0.000;2022-10-23T13:49:01;7.00;;;2.60;;
47413;SDS011;33163;0.000;0.000;2022-10-23T13:51:28;7.38;;;2.15;;
47413;SDS011;33163;0.000;0.000;2022-10-23T13:53:57;7.18;;;2.65;;
47413;SDS011;33163;0.000;0.000;2022-10-23T13:56:26;5.88;;;2.50;;
47413;SDS011;33163;0.000;0.000;2022-10-23T13:58:52;6.15;;;2.47;;
47413;SDS011;33163;0.000;0.000;2022-10-23T14:01:21;9.82;;;2.70;;
47413;SDS011;33163;0.000;0.000;2022-10-23T14:03:49;8.95;;;2.78;;
47413;SDS011;33163;0.000;0.000;2022-10-23T14:06:18;7.25;;;2.85;;
47413;SDS011;33163;0.000;0.000;2022-10-23T14:08:44;16.17;;;2.55;;
47413;SDS011;33163;0.000;0.000;2022-10-23T14:11:12;10.30;;;2.70;;
47413;SDS011;33163;0.000;0.000;2022-10-23T14:13:42;9.30;;;2.75;;
47413;SDS011;33163;0.000;0.000;2022-10-23T14:16:10;7.30;;;2.15;;
47413;SDS011;33163;0.000;0.000;2022-10-23T14:18:38;9.52;;;2.70;;
47413;SDS011;33163;0.000;0.000;2022-10-23T14:21:06;19.73;;;2.70;;
47413;SDS011;33163;0.000;0.000;2022-10-23T14:23:34;9.98;;;2.92;;
47413;SDS011;33163;0.000;0.000;2022-10-23T14:26:01;5.15;;;2.72;;
47413;SDS011;33163;0.000;0.000;2022-10-23T14:28:28;15.70;;;2.88;;
47413;SDS011;33163;0.000;0.000;2022-10-23T14:30:56;10.63;;;3.10;;
47413;SDS011;33163;0.000;0.000;2022-10-23T14:33:23;16.60;;;2.90;;
47413;SDS011;33163;0.000;0.000;2022-10-23T14:35:49;12.88;;;3.08;;
47413;SDS011;33163;0.000;0.000;2022-10-23T14:38:17;8.05;;;2.65;;
47413;SDS011;33163;0.000;0.000;2022-10-23T14:40:44;10.57;;;3.15;;
47413;SDS011;33163;0.000;0.000;2022-10-23T14:43:10;20.00;;;3.00;;
47413;SDS011;33163;0.000;0.000;2022-10-23T14:45:37;18.92;;;2.97;;
47413;SDS011;33163;0.000;0.000;2022-10-23T14:48:05;9.63;;;2.50;;
47413;SDS011;33163;0.000;0.000;2022-10-23T14:50:33;14.02;;;3.05;;
47413;SDS011;33163;0.000;0.000;2022-10-23T14:53:00;7.75;;;2.78;;
47413;SDS011;33163;0.000;0.000;2022-10-23T14:55:27;11.63;;;2.78;;
47413;SDS011;33163;0.000;0.000;2022-10-23T14:57:55;9.70;;;2.60;;
47413;SDS011;33163;0.000;0.000;2022-10-23T15:00:21;9.00;;;2.38;;
47413;SDS011;33163;0.000;0.000;2022-10-23T15:02:48;11.85;;;2.63;;
47413;SDS011;33163;0.000;0.000;2022-10-23T15:05:16;6.10;;;2.70;;
47413;SDS011;33163;0.000;0.000;2022-10-23T15:07:43;4.57;;;1.98;;
47413;SDS011;33163;0.000;0.000;2022-10-23T15:10:10;12.00;;;3.08;;
47413;SDS011;33163;0.000;0.000;2022-10-23T15:12:37;13.30;;;3.05;;
47413;SDS011;33163;0.000;0.000;2022-10-23T15:15:05;9.00;;;2.65;;
47413;SDS011;33163;0.000;0.000;2022-10-23T15:17:33;8.95;;;2.90;;
47413;SDS011;33163;0.000;0.000;2022-10-23T15:20:02;14.45;;;2.85;;
47413;SDS011;33163;0.000;0.000;2022-10-23T15:22:30;8.63;;;2.47;;
47413;SDS011;33163;0.000;0.000;2022-10-23T15:24:57;11.15;;;2.08;;
47413;SDS011;33163;0.000;0.000;2022-10-23T15:27:24;11.38;;;2.92;;
47413;SDS011;33163;0.000;0.000;2022-10-23T15:29:51;12.48;;;2.72;;
47413;SDS011;33163;0.000;0.000;2022-10-23T15:32:17;9.00;;;2.63;;
47413;SDS011;33163;0.000;0.000;2022-10-23T15:34:44;6.38;;;2.53;;
47413;SDS011;33163;0.000;0.000;2022-10-23T15:37:13;15.20;;;2.83;;
47413;SDS011;33163;0.000;0.000;2022-10-23T15:39:41;12.93;;;2.97;;
47413;SDS011;33163;0.000;0.000;2022-10-23T15:42:09;8.68;;;2.67;;